Aviation Digital Data Service (ADDS)

Output produced by METARs form (1034 UTC 15 July 2020)
found at http://www.aviationweather.gov/metar/data/
 
METAR text: KCLE 150951Z 16006KT 10SM FEW150 FEW250 18/15 A3013 RMK AO2 SLP198 T01830150
Conditions at: KCLE (CLEVELAND , OH, US) observed 0951 UTC 15 July 2020
Temperature: 18.3°C (65°F)
Dewpoint: 15.0°C (59°F) [RH = 81%]
Pressure (altimeter): 30.13 inches Hg (1020.4 mb)
[Sea-level pressure: 1019.8 mb]
Winds: from the SSE (160 degrees) at 7 MPH (6 knots; 3.1 m/s)
Visibility: 10 or more miles (16+ km)
Ceiling: at least 12,000 feet AGL
Clouds: few clouds at 15000 feet AGL
few clouds at 25000 feet AGL
Weather: no significant weather observed at this time

METAR text: KCLE 150851Z 18004KT 10SM FEW250 19/15 A3013 RMK AO2 SLP199 T01890150 53002
Conditions at: KCLE (CLEVELAND , OH, US) observed 0851 UTC 15 July 2020
Temperature: 18.9°C (66°F)
Dewpoint: 15.0°C (59°F) [RH = 78%]
Pressure (altimeter): 30.13 inches Hg (1020.4 mb)
[Sea-level pressure: 1019.9 mb]
Winds: from the S (180 degrees) at 5 MPH (4 knots; 2.1 m/s)
Visibility: 10 or more miles (16+ km)
Ceiling: at least 12,000 feet AGL
Clouds: few clouds at 25000 feet AGL
Weather: no significant weather observed at this time

METAR text: KCLE 150751Z 17005KT 10SM FEW250 18/14 A3013 RMK AO2 SLP197 T01830144
Conditions at: KCLE (CLEVELAND , OH, US) observed 0751 UTC 15 July 2020
Temperature: 18.3°C (65°F)
Dewpoint: 14.4°C (58°F) [RH = 78%]
Pressure (altimeter): 30.13 inches Hg (1020.4 mb)
[Sea-level pressure: 1019.7 mb]
Winds: from the S (170 degrees) at 6 MPH (5 knots; 2.6 m/s)
Visibility: 10 or more miles (16+ km)
Ceiling: at least 12,000 feet AGL
Clouds: few clouds at 25000 feet AGL
Weather: no significant weather observed at this time

METAR text: KCLE 150651Z 16005KT 10SM SCT250 19/14 A3013 RMK AO2 SLP198 T01890144
Conditions at: KCLE (CLEVELAND , OH, US) observed 0651 UTC 15 July 2020
Temperature: 18.9°C (66°F)
Dewpoint: 14.4°C (58°F) [RH = 75%]
Pressure (altimeter): 30.13 inches Hg (1020.4 mb)
[Sea-level pressure: 1019.8 mb]
Winds: from the SSE (160 degrees) at 6 MPH (5 knots; 2.6 m/s)
Visibility: 10 or more miles (16+ km)
Ceiling: at least 12,000 feet AGL
Clouds: scattered clouds at 25000 feet AGL
Weather: no significant weather observed at this time

METAR text: KCLE 150551Z 16007KT 10SM SCT250 19/14 A3013 RMK AO2 SLP198 T01940144 10256 20194 58002
Conditions at: KCLE (CLEVELAND , OH, US) observed 0551 UTC 15 July 2020
Temperature: 19.4°C (67°F)
Dewpoint: 14.4°C (58°F) [RH = 73%]
Pressure (altimeter): 30.13 inches Hg (1020.4 mb)
[Sea-level pressure: 1019.8 mb]
Winds: from the SSE (160 degrees) at 8 MPH (7 knots; 3.6 m/s)
Visibility: 10 or more miles (16+ km)
Ceiling: at least 12,000 feet AGL
Clouds: scattered clouds at 25000 feet AGL
Weather: no significant weather observed at this time

METAR text: KCLE 150451Z 16006KT 10SM BKN250 19/14 A3014 RMK AO2 SLP200 T01940139 402780144
Conditions at: KCLE (CLEVELAND , OH, US) observed 0451 UTC 15 July 2020
Temperature: 19.4°C (67°F)
Dewpoint: 13.9°C (57°F) [RH = 71%]
Pressure (altimeter): 30.14 inches Hg (1020.7 mb)
[Sea-level pressure: 1020.0 mb]
Winds: from the SSE (160 degrees) at 7 MPH (6 knots; 3.1 m/s)
Visibility: 10 or more miles (16+ km)
Ceiling: 25000 feet AGL
Clouds: broken clouds at 25000 feet AGL
Weather: no significant weather observed at this time

METAR text: KCLE 150351Z 14007KT 10SM BKN250 21/14 A3013 RMK AO2 SLP199 T02110144
Conditions at: KCLE (CLEVELAND , OH, US) observed 0351 UTC 15 July 2020
Temperature: 21.1°C (70°F)
Dewpoint: 14.4°C (58°F) [RH = 66%]
Pressure (altimeter): 30.13 inches Hg (1020.4 mb)
[Sea-level pressure: 1019.9 mb]
Winds: from the SE (140 degrees) at 8 MPH (7 knots; 3.6 m/s)
Visibility: 10 or more miles (16+ km)
Ceiling: 25000 feet AGL
Clouds: broken clouds at 25000 feet AGL
Weather: no significant weather observed at this time

METAR text: KCLE 150251Z 11007KT 10SM BKN200 23/14 A3014 RMK AO2 SLP199 T02330139 53009
Conditions at: KCLE (CLEVELAND , OH, US) observed 0251 UTC 15 July 2020
Temperature: 23.3°C (74°F)
Dewpoint: 13.9°C (57°F) [RH = 56%]
Pressure (altimeter): 30.14 inches Hg (1020.7 mb)
[Sea-level pressure: 1019.9 mb]
Winds: from the ESE (110 degrees) at 8 MPH (7 knots; 3.6 m/s)
Visibility: 10 or more miles (16+ km)
Ceiling: 20000 feet AGL
Clouds: broken clouds at 20000 feet AGL
Weather: no significant weather observed at this time

METAR text: KCLE 150151Z 09007KT 10SM BKN200 24/13 A3011 RMK AO2 SLP191 T02440128
Conditions at: KCLE (CLEVELAND , OH, US) observed 0151 UTC 15 July 2020
Temperature: 24.4°C (76°F)
Dewpoint: 12.8°C (55°F) [RH = 48%]
Pressure (altimeter): 30.11 inches Hg (1019.7 mb)
[Sea-level pressure: 1019.1 mb]
Winds: from the E (90 degrees) at 8 MPH (7 knots; 3.6 m/s)
Visibility: 10 or more miles (16+ km)
Ceiling: 20000 feet AGL
Clouds: broken clouds at 20000 feet AGL
Weather: no significant weather observed at this time

METAR text: KCLE 150051Z 05006KT 10SM BKN200 25/12 A3011 RMK AO2 SLP191 T02500122
Conditions at: KCLE (CLEVELAND , OH, US) observed 0051 UTC 15 July 2020
Temperature: 25.0°C (77°F)
Dewpoint: 12.2°C (54°F) [RH = 45%]
Pressure (altimeter): 30.11 inches Hg (1019.7 mb)
[Sea-level pressure: 1019.1 mb]
Winds: from the NE (50 degrees) at 7 MPH (6 knots; 3.1 m/s)
Visibility: 10 or more miles (16+ km)
Ceiling: 20000 feet AGL
Clouds: broken clouds at 20000 feet AGL
Weather: no significant weather observed at this time

METAR text: KCLE 142351Z 05008KT 10SM BKN200 25/13 A3011 RMK AO2 SLP191 T02500133 10278 20250 50003
Conditions at: KCLE (CLEVELAND , OH, US) observed 2351 UTC 14 July 2020
Temperature: 25.0°C (77°F)
Dewpoint: 13.3°C (56°F) [RH = 48%]
Pressure (altimeter): 30.11 inches Hg (1019.7 mb)
[Sea-level pressure: 1019.1 mb]
Winds: from the NE (50 degrees) at 9 MPH (8 knots; 4.1 m/s)
Visibility: 10 or more miles (16+ km)
Ceiling: 20000 feet AGL
Clouds: broken clouds at 20000 feet AGL
Weather: no significant weather observed at this time

METAR text: KCLE 142251Z 03009KT 10SM FEW060 BKN200 26/14 A3011 RMK AO2 SLP193 T02610139
Conditions at: KCLE (CLEVELAND , OH, US) observed 2251 UTC 14 July 2020
Temperature: 26.1°C (79°F)
Dewpoint: 13.9°C (57°F) [RH = 47%]
Pressure (altimeter): 30.11 inches Hg (1019.7 mb)
[Sea-level pressure: 1019.3 mb]
Winds: from the NNE (30 degrees) at 10 MPH (9 knots; 4.6 m/s)
Visibility: 10 or more miles (16+ km)
Ceiling: 20000 feet AGL
Clouds: few clouds at 6000 feet AGL
broken clouds at 20000 feet AGL
Weather: no significant weather observed at this time

METAR text: KCLE 142151Z 04007KT 10SM FEW060 SCT250 27/14 A3010 RMK AO2 SLP187 T02720144
Conditions at: KCLE (CLEVELAND , OH, US) observed 2151 UTC 14 July 2020
Temperature: 27.2°C (81°F)
Dewpoint: 14.4°C (58°F) [RH = 45%]
Pressure (altimeter): 30.10 inches Hg (1019.4 mb)
[Sea-level pressure: 1018.7 mb]
Winds: from the NE (40 degrees) at 8 MPH (7 knots; 3.6 m/s)
Visibility: 10 or more miles (16+ km)
Ceiling: at least 12,000 feet AGL
Clouds: few clouds at 6000 feet AGL
scattered clouds at 25000 feet AGL
Weather: no significant weather observed at this time

METAR text: KCLE 142051Z VRB05KT 10SM FEW060 FEW250 27/14 A3010 RMK AO2 SLP187 T02720144 58006
Conditions at: KCLE (CLEVELAND , OH, US) observed 2051 UTC 14 July 2020
Temperature: 27.2°C (81°F)
Dewpoint: 14.4°C (58°F) [RH = 45%]
Pressure (altimeter): 30.10 inches Hg (1019.4 mb)
[Sea-level pressure: 1018.7 mb]
Winds: variable direction winds at 6 MPH (5 knots; 2.6 m/s)
Visibility: 10 or more miles (16+ km)
Ceiling: at least 12,000 feet AGL
Clouds: few clouds at 6000 feet AGL
few clouds at 25000 feet AGL
Weather: no significant weather observed at this time

METAR text: KCLE 141951Z 36010G17KT 10SM FEW060 SCT250 28/14 A3010 RMK AO2 SLP189 T02780144
Conditions at: KCLE (CLEVELAND , OH, US) observed 1951 UTC 14 July 2020
Temperature: 27.8°C (82°F)
Dewpoint: 14.4°C (58°F) [RH = 44%]
Pressure (altimeter): 30.10 inches Hg (1019.4 mb)
[Sea-level pressure: 1018.9 mb]
Winds: from the N (360 degrees) at 12 MPH (10 knots; 5.1 m/s)
gusting to 20 MPH (17 knots; 8.7 m/s)
Visibility: 10 or more miles (16+ km)
Ceiling: at least 12,000 feet AGL
Clouds: few clouds at 6000 feet AGL
scattered clouds at 25000 feet AGL
Weather: no significant weather observed at this time

METAR text: KCLE 141851Z 35008KT 10SM FEW060 FEW250 28/14 A3012 RMK AO2 SLP193 T02780144
Conditions at: KCLE (CLEVELAND , OH, US) observed 1851 UTC 14 July 2020
Temperature: 27.8°C (82°F)
Dewpoint: 14.4°C (58°F) [RH = 44%]
Pressure (altimeter): 30.12 inches Hg (1020.1 mb)
[Sea-level pressure: 1019.3 mb]
Winds: from the N (350 degrees) at 9 MPH (8 knots; 4.1 m/s)
Visibility: 10 or more miles (16+ km)
Ceiling: at least 12,000 feet AGL
Clouds: few clouds at 6000 feet AGL
few clouds at 25000 feet AGL
Weather: no significant weather observed at this time

METAR text: KCLE 141751Z VRB06KT 10SM FEW049 FEW060 FEW250 27/14 A3012 RMK AO2 SLP193 T02720144 10278 20189 53004
Conditions at: KCLE (CLEVELAND , OH, US) observed 1751 UTC 14 July 2020
Temperature: 27.2°C (81°F)
Dewpoint: 14.4°C (58°F) [RH = 45%]
Pressure (altimeter): 30.12 inches Hg (1020.1 mb)
[Sea-level pressure: 1019.3 mb]
Winds: variable direction winds at 7 MPH (6 knots; 3.1 m/s)
Visibility: 10 or more miles (16+ km)
Ceiling: at least 12,000 feet AGL
Clouds: few clouds at 4900 feet AGL
few clouds at 6000 feet AGL
few clouds at 25000 feet AGL
Weather: no significant weather observed at this time

METAR text: KCLE 141651Z 34007KT 10SM SCT049 SCT060 SCT250 27/14 A3011 RMK AO2 SLP190 T02670139
Conditions at: KCLE (CLEVELAND , OH, US) observed 1651 UTC 14 July 2020
Temperature: 26.7°C (80°F)
Dewpoint: 13.9°C (57°F) [RH = 45%]
Pressure (altimeter): 30.11 inches Hg (1019.7 mb)
[Sea-level pressure: 1019.0 mb]
Winds: from the NNW (340 degrees) at 8 MPH (7 knots; 3.6 m/s)
Visibility: 10 or more miles (16+ km)
Ceiling: at least 12,000 feet AGL
Clouds: scattered clouds at 4900 feet AGL
scattered clouds at 6000 feet AGL
scattered clouds at 25000 feet AGL
Weather: no significant weather observed at this time

METAR text: KCLE 141551Z 00000KT 10SM FEW045 SCT060 SCT250 25/14 A3010 RMK AO2 SLP189 T02500139
Conditions at: KCLE (CLEVELAND , OH, US) observed 1551 UTC 14 July 2020
Temperature: 25.0°C (77°F)
Dewpoint: 13.9°C (57°F) [RH = 50%]
Pressure (altimeter): 30.10 inches Hg (1019.4 mb)
[Sea-level pressure: 1018.9 mb]
Winds: calm
Visibility: 10 or more miles (16+ km)
Ceiling: at least 12,000 feet AGL
Clouds: few clouds at 4500 feet AGL
scattered clouds at 6000 feet AGL
scattered clouds at 25000 feet AGL
Weather: no significant weather observed at this time

METAR text: KCLE 141451Z VRB04KT 10SM FEW050 FEW250 26/14 A3010 RMK AO2 SLP189 T02560144 58002
Conditions at: KCLE (CLEVELAND , OH, US) observed 1451 UTC 14 July 2020
Temperature: 25.6°C (78°F)
Dewpoint: 14.4°C (58°F) [RH = 50%]
Pressure (altimeter): 30.10 inches Hg (1019.4 mb)
[Sea-level pressure: 1018.9 mb]
Winds: variable direction winds at 5 MPH (4 knots; 2.1 m/s)
Visibility: 10 or more miles (16+ km)
Ceiling: at least 12,000 feet AGL
Clouds: few clouds at 5000 feet AGL
few clouds at 25000 feet AGL
Weather: no significant weather observed at this time

METAR text: KCLE 141351Z 23005KT 10SM FEW050 FEW150 24/14 A3011 RMK AO2 SLP192 T02440144
Conditions at: KCLE (CLEVELAND , OH, US) observed 1351 UTC 14 July 2020
Temperature: 24.4°C (76°F)
Dewpoint: 14.4°C (58°F) [RH = 54%]
Pressure (altimeter): 30.11 inches Hg (1019.7 mb)
[Sea-level pressure: 1019.2 mb]
Winds: from the SW (230 degrees) at 6 MPH (5 knots; 2.6 m/s)
Visibility: 10 or more miles (16+ km)
Ceiling: at least 12,000 feet AGL
Clouds: few clouds at 5000 feet AGL
few clouds at 15000 feet AGL
Weather: no significant weather observed at this time

METAR text: KCLE 141251Z 26003KT 10SM FEW050 FEW150 22/16 A3012 RMK AO2 SLP195 T02170156
Conditions at: KCLE (CLEVELAND , OH, US) observed 1251 UTC 14 July 2020
Temperature: 21.7°C (71°F)
Dewpoint: 15.6°C (60°F) [RH = 68%]
Pressure (altimeter): 30.12 inches Hg (1020.1 mb)
[Sea-level pressure: 1019.5 mb]
Winds: from the W (260 degrees) at 3 MPH (3 knots; 1.5 m/s)
Visibility: 10 or more miles (16+ km)
Ceiling: at least 12,000 feet AGL
Clouds: few clouds at 5000 feet AGL
few clouds at 15000 feet AGL
Weather: no significant weather observed at this time

METAR text: KCLE 141151Z 00000KT 10SM FEW050 19/16 A3011 RMK AO2 SLP192 T01890156 10189 20144 51022
Conditions at: KCLE (CLEVELAND , OH, US) observed 1151 UTC 14 July 2020
Temperature: 18.9°C (66°F)
Dewpoint: 15.6°C (60°F) [RH = 81%]
Pressure (altimeter): 30.11 inches Hg (1019.7 mb)
[Sea-level pressure: 1019.2 mb]
Winds: calm
Visibility: 10 or more miles (16+ km)
Ceiling: at least 12,000 feet AGL
Clouds: few clouds at 5000 feet AGL
Weather: no significant weather observed at this time

METAR text: KCLE 141109Z 16004KT 10SM FEW002 17/15 A3010 RMK AO2 T01670150
Conditions at: KCLE (CLEVELAND , OH, US) observed 1109 UTC 14 July 2020
Temperature: 16.7°C (62°F)
Dewpoint: 15.0°C (59°F) [RH = 90%]
Pressure (altimeter): 30.10 inches Hg (1019.4 mb)
Winds: from the SSE (160 degrees) at 5 MPH (4 knots; 2.1 m/s)
Visibility: 10 or more miles (16+ km)
Ceiling: at least 12,000 feet AGL
Clouds: few clouds at 200 feet AGL
Weather: no significant weather observed at this time

METAR text: KCLE 141051Z 00000KT 10SM FEW050 FEW250 16/14 A3010 RMK AO2 SLP188 T01610144
Conditions at: KCLE (CLEVELAND , OH, US) observed 1051 UTC 14 July 2020
Temperature: 16.1°C (61°F)
Dewpoint: 14.4°C (58°F) [RH = 90%]
Pressure (altimeter): 30.10 inches Hg (1019.4 mb)
[Sea-level pressure: 1018.8 mb]
Winds: calm
Visibility: 10 or more miles (16+ km)
Ceiling: at least 12,000 feet AGL
Clouds: few clouds at 5000 feet AGL
few clouds at 25000 feet AGL
Weather: no significant weather observed at this time

METAR text: KCLE 140951Z 00000KT 10SM CLR 16/14 A3007 RMK AO2 SLP177 T01560144
Conditions at: KCLE (CLEVELAND , OH, US) observed 0951 UTC 14 July 2020
Temperature: 15.6°C (60°F)
Dewpoint: 14.4°C (58°F) [RH = 93%]
Pressure (altimeter): 30.07 inches Hg (1018.4 mb)
[Sea-level pressure: 1017.7 mb]
Winds: calm
Visibility: 10 or more miles (16+ km)
Ceiling: at least 12,000 feet AGL
Clouds: sky clear below 12,000 feet AGL
Weather: no significant weather observed at this time

METAR text: KCLE 140851Z 20003KT 10SM CLR 17/14 A3004 RMK AO2 SLP170 T01670144 53003
Conditions at: KCLE (CLEVELAND , OH, US) observed 0851 UTC 14 July 2020
Temperature: 16.7°C (62°F)
Dewpoint: 14.4°C (58°F) [RH = 86%]
Pressure (altimeter): 30.04 inches Hg (1017.4 mb)
[Sea-level pressure: 1017.0 mb]
Winds: from the SSW (200 degrees) at 3 MPH (3 knots; 1.5 m/s)
Visibility: 10 or more miles (16+ km)
Ceiling: at least 12,000 feet AGL
Clouds: sky clear below 12,000 feet AGL
Weather: no significant weather observed at this time

METAR text: KCLE 140751Z 00000KT 10SM CLR 17/14 A3004 RMK AO2 SLP168 T01670144
Conditions at: KCLE (CLEVELAND , OH, US) observed 0751 UTC 14 July 2020
Temperature: 16.7°C (62°F)
Dewpoint: 14.4°C (58°F) [RH = 86%]
Pressure (altimeter): 30.04 inches Hg (1017.4 mb)
[Sea-level pressure: 1016.8 mb]
Winds: calm
Visibility: 10 or more miles (16+ km)
Ceiling: at least 12,000 feet AGL
Clouds: sky clear below 12,000 feet AGL
Weather: no significant weather observed at this time

METAR text: KCLE 140651Z 16006KT 10SM CLR 16/14 A3003 RMK AO2 SLP164 T01610139
Conditions at: KCLE (CLEVELAND , OH, US) observed 0651 UTC 14 July 2020
Temperature: 16.1°C (61°F)
Dewpoint: 13.9°C (57°F) [RH = 87%]
Pressure (altimeter): 30.03 inches Hg (1017.0 mb)
[Sea-level pressure: 1016.4 mb]
Winds: from the SSE (160 degrees) at 7 MPH (6 knots; 3.1 m/s)
Visibility: 10 or more miles (16+ km)
Ceiling: at least 12,000 feet AGL
Clouds: sky clear below 12,000 feet AGL
Weather: no significant weather observed at this time

METAR text: KCLE 140551Z 00000KT 10SM CLR 18/15 A3003 RMK AO2 SLP166 T01780150 10239 20172 53002
Conditions at: KCLE (CLEVELAND , OH, US) observed 0551 UTC 14 July 2020
Temperature: 17.8°C (64°F)
Dewpoint: 15.0°C (59°F) [RH = 84%]
Pressure (altimeter): 30.03 inches Hg (1017.0 mb)
[Sea-level pressure: 1016.6 mb]
Winds: calm
Visibility: 10 or more miles (16+ km)
Ceiling: at least 12,000 feet AGL
Clouds: sky clear below 12,000 feet AGL
Weather: no significant weather observed at this time

METAR text: KCLE 140451Z 00000KT 10SM CLR 17/15 A3003 RMK AO2 SLP163 T01720150 402610172
Conditions at: KCLE (CLEVELAND , OH, US) observed 0451 UTC 14 July 2020
Temperature: 17.2°C (63°F)
Dewpoint: 15.0°C (59°F) [RH = 87%]
Pressure (altimeter): 30.03 inches Hg (1017.0 mb)
[Sea-level pressure: 1016.3 mb]
Winds: calm
Visibility: 10 or more miles (16+ km)
Ceiling: at least 12,000 feet AGL
Clouds: sky clear below 12,000 feet AGL
Weather: no significant weather observed at this time

METAR text: KCLE 140351Z 18003KT 10SM CLR 19/14 A3003 RMK AO2 SLP162 T01940144
Conditions at: KCLE (CLEVELAND , OH, US) observed 0351 UTC 14 July 2020
Temperature: 19.4°C (67°F)
Dewpoint: 14.4°C (58°F) [RH = 73%]
Pressure (altimeter): 30.03 inches Hg (1017.0 mb)
[Sea-level pressure: 1016.2 mb]
Winds: from the S (180 degrees) at 3 MPH (3 knots; 1.5 m/s)
Visibility: 10 or more miles (16+ km)
Ceiling: at least 12,000 feet AGL
Clouds: sky clear below 12,000 feet AGL
Weather: no significant weather observed at this time

METAR text: KCLE 140251Z 04006KT 10SM FEW050 21/14 A3003 RMK AO2 SLP163 T02110144 53007
Conditions at: KCLE (CLEVELAND , OH, US) observed 0251 UTC 14 July 2020
Temperature: 21.1°C (70°F)
Dewpoint: 14.4°C (58°F) [RH = 66%]
Pressure (altimeter): 30.03 inches Hg (1017.0 mb)
[Sea-level pressure: 1016.3 mb]
Winds: from the NE (40 degrees) at 7 MPH (6 knots; 3.1 m/s)
Visibility: 10 or more miles (16+ km)
Ceiling: at least 12,000 feet AGL
Clouds: few clouds at 5000 feet AGL
Weather: no significant weather observed at this time

METAR text: KCLE 140151Z 02006KT 10SM FEW050 FEW150 21/14 A3002 RMK AO2 SLP160 T02110144
Conditions at: KCLE (CLEVELAND , OH, US) observed 0151 UTC 14 July 2020
Temperature: 21.1°C (70°F)
Dewpoint: 14.4°C (58°F) [RH = 66%]
Pressure (altimeter): 30.02 inches Hg (1016.7 mb)
[Sea-level pressure: 1016.0 mb]
Winds: from the NNE (20 degrees) at 7 MPH (6 knots; 3.1 m/s)
Visibility: 10 or more miles (16+ km)
Ceiling: at least 12,000 feet AGL
Clouds: few clouds at 5000 feet AGL
few clouds at 15000 feet AGL
Weather: no significant weather observed at this time

METAR text: KCLE 140051Z 02005KT 10SM FEW200 22/14 A3001 RMK AO2 SLP156 T02220144
Conditions at: KCLE (CLEVELAND , OH, US) observed 0051 UTC 14 July 2020
Temperature: 22.2°C (72°F)
Dewpoint: 14.4°C (58°F) [RH = 61%]
Pressure (altimeter): 30.01 inches Hg (1016.3 mb)
[Sea-level pressure: 1015.6 mb]
Winds: from the NNE (20 degrees) at 6 MPH (5 knots; 2.6 m/s)
Visibility: 10 or more miles (16+ km)
Ceiling: at least 12,000 feet AGL
Clouds: few clouds at 20000 feet AGL
Weather: no significant weather observed at this time

METAR text: KCLE 132351Z 01005KT 10SM CLR 24/14 A3000 RMK AO2 SLP155 T02390144 10261 20239 51005
Conditions at: KCLE (CLEVELAND , OH, US) observed 2351 UTC 13 July 2020
Temperature: 23.9°C (75°F)
Dewpoint: 14.4°C (58°F) [RH = 55%]
Pressure (altimeter): 30.00 inches Hg (1016.0 mb)
[Sea-level pressure: 1015.5 mb]
Winds: from the N (10 degrees) at 6 MPH (5 knots; 2.6 m/s)
Visibility: 10 or more miles (16+ km)
Ceiling: at least 12,000 feet AGL
Clouds: sky clear below 12,000 feet AGL
Weather: no significant weather observed at this time

METAR text: KCLE 132251Z VRB05KT 10SM CLR 24/14 A3000 RMK AO2 SLP154 T02440144
Conditions at: KCLE (CLEVELAND , OH, US) observed 2251 UTC 13 July 2020
Temperature: 24.4°C (76°F)
Dewpoint: 14.4°C (58°F) [RH = 54%]
Pressure (altimeter): 30.00 inches Hg (1016.0 mb)
[Sea-level pressure: 1015.4 mb]
Winds: variable direction winds at 6 MPH (5 knots; 2.6 m/s)
Visibility: 10 or more miles (16+ km)
Ceiling: at least 12,000 feet AGL
Clouds: sky clear below 12,000 feet AGL
Weather: no significant weather observed at this time

Forecast for: KCLE (CLEVELAND , OH, US)
Text: KCLE 150910Z 1509/1612 14006KT P6SM FEW250
Forecast period: 0900 to 1900 UTC 15 July 2020
Forecast type: FROM: standard forecast or significant change
Winds: from the SE (140 degrees) at 7 MPH (6 knots; 3.1 m/s)
Visibility: 6 or more miles 10+ km)
Ceiling: at least 12,000 feet AGL
Clouds: few clouds at 25000 feet AGL
Weather: no significant weather forecast for this period
Text: FM151900 34010KT P6SM FEW250
Forecast period: 1900 to 2300 UTC 15 July 2020
Forecast type: FROM: standard forecast or significant change
Winds: from the NNW (340 degrees) at 12 MPH (10 knots; 5.1 m/s)
Visibility: 6 or more miles 10+ km)
Ceiling: at least 12,000 feet AGL
Clouds: few clouds at 25000 feet AGL
Weather: no significant weather forecast for this period
Text: FM152300 14006KT P6SM FEW250
Forecast period: 2300 UTC 15 July 2020 to 1100 UTC 16 July 2020
Forecast type: FROM: standard forecast or significant change
Winds: from the SE (140 degrees) at 7 MPH (6 knots; 3.1 m/s)
Visibility: 6 or more miles 10+ km)
Ceiling: at least 12,000 feet AGL
Clouds: few clouds at 25000 feet AGL
Weather: no significant weather forecast for this period
Text: FM161100 21007KT P6SM VCSH OVC100
Forecast period: 1100 to 1200 UTC 16 July 2020
Forecast type: FROM: standard forecast or significant change
Winds: from the SSW (210 degrees) at 8 MPH (7 knots; 3.6 m/s)
Visibility: 6 or more miles 10+ km)
Ceiling: 10000 feet AGL
Clouds: overcast cloud deck at 10000 feet AGL
Weather: VCSH  (showers in vicinity)